Time;durP1;ratioP1;P1;durP2;ratioP2;P2;SDS_P1;SDS_P2;PMS_P1;PMS_P2;Temp;Humidity;BMP_temperature;BMP_pressure;BME280_temperature;BME280_humidity;BME280_pressure;Samples;Min_cycle;Max_cycle;Signal;HPM_P1;HPM_P2
2022/04/16 00:01:38;;;;;;;23.07;18.80;;;;;;;;;;5033999;28;20176;-65
2022/04/16 00:04:04;;;;;;;23.57;17.93;;;;;;;;;;5034172;28;20170;-65
2022/04/16 00:06:30;;;;;;;23.67;18.53;;;;;;;;;;5033710;28;20213;-66
2022/04/16 00:08:56;;;;;;;24.87;18.57;;;;;;;;;;5033650;28;20258;-65
2022/04/16 00:11:22;;;;;;;26.20;19.00;;;;;;;;;;5033485;28;20190;-65
2022/04/16 00:13:50;;;;;;;20.37;16.70;;;;;;;;;;5015769;28;20214;-65
2022/04/16 00:16:17;;;;;;;21.83;17.43;;;;;;;;;;5033632;28;20609;-65
2022/04/16 00:18:43;;;;;;;26.27;17.83;;;;;;;;;;5016381;28;20635;-65
2022/04/16 00:21:10;;;;;;;24.60;18.03;;;;;;;;;;5016087;28;20233;-66
2022/04/16 00:23:37;;;;;;;20.03;17.67;;;;;;;;;;5016077;28;20574;-65
2022/04/16 00:26:04;;;;;;;19.90;17.07;;;;;;;;;;5016078;28;20551;-65
2022/04/16 00:28:30;;;;;;;24.83;17.47;;;;;;;;;;5015775;28;20277;-65
2022/04/16 00:30:56;;;;;;;21.47;17.73;;;;;;;;;;5033579;28;20213;-65
2022/04/16 00:33:25;;;;;;;23.43;17.50;;;;;;;;;;5015759;28;20621;-65
2022/04/16 00:35:51;;;;;;;25.63;17.73;;;;;;;;;;5015957;28;20179;-64
2022/04/16 00:38:17;;;;;;;24.33;17.77;;;;;;;;;;5015649;28;20275;-65
2022/04/16 00:40:43;;;;;;;23.70;18.53;;;;;;;;;;5033741;28;20639;-65
2022/04/16 00:43:20;;;;;;;23.20;18.40;;;;;;;;;;5033498;28;20234;-65
2022/04/16 00:45:47;;;;;;;23.43;19.07;;;;;;;;;;5034027;28;20635;-64
2022/04/16 00:48:13;;;;;;;22.13;19.33;;;;;;;;;;5034136;28;20182;-65
2022/04/16 00:50:40;;;;;;;25.93;18.77;;;;;;;;;;5016084;28;20187;-64
2022/04/16 00:53:06;;;;;;;20.97;18.53;;;;;;;;;;5033133;28;20290;-65
2022/04/16 00:55:33;;;;;;;26.97;20.23;;;;;;;;;;5033399;28;20193;-65
2022/04/16 00:57:59;;;;;;;24.07;20.13;;;;;;;;;;5015556;28;20674;-65
2022/04/16 01:00:25;;;;;;;29.13;20.27;;;;;;;;;;5015557;28;20179;-65
2022/04/16 01:02:51;;;;;;;30.17;20.53;;;;;;;;;;5015604;28;20206;-65
2022/04/16 01:05:19;;;;;;;27.57;20.87;;;;;;;;;;5033153;28;20263;-65
2022/04/16 01:07:53;;;;;;;26.10;20.37;;;;;;;;;;5045991;28;20643;-65
2022/04/16 01:10:19;;;;;;;28.03;21.83;;;;;;;;;;5033853;28;20175;-65
2022/04/16 01:12:45;;;;;;;27.07;21.67;;;;;;;;;;5035363;28;20221;-65
2022/04/16 01:15:11;;;;;;;28.90;22.57;;;;;;;;;;5050715;28;20206;-65
2022/04/16 01:17:37;;;;;;;29.33;22.77;;;;;;;;;;5019764;28;20190;-65
2022/04/16 01:20:03;;;;;;;29.87;21.37;;;;;;;;;;5037222;28;20183;-65
2022/04/16 01:22:30;;;;;;;34.93;23.93;;;;;;;;;;5037058;28;20265;-65
2022/04/16 01:24:56;;;;;;;28.83;22.17;;;;;;;;;;5018881;28;20236;-65
2022/04/16 01:27:21;;;;;;;33.00;23.40;;;;;;;;;;5036745;28;20653;-65
2022/04/16 01:29:48;;;;;;;30.10;22.57;;;;;;;;;;5018823;28;20229;-65
2022/04/16 01:32:14;;;;;;;29.43;23.30;;;;;;;;;;5018738;28;20699;-64
2022/04/16 01:34:40;;;;;;;29.97;23.40;;;;;;;;;;5018767;28;20713;-65
2022/04/16 01:37:06;;;;;;;30.70;23.17;;;;;;;;;;5036928;28;20568;-64
2022/04/16 01:39:32;;;;;;;28.43;24.20;;;;;;;;;;5036359;28;20175;-64
2022/04/16 01:41:59;;;;;;;29.87;24.53;;;;;;;;;;5036688;28;20203;-65
2022/04/16 01:44:25;;;;;;;33.87;22.77;;;;;;;;;;5018784;28;20186;-64
2022/04/16 01:46:51;;;;;;;28.67;24.37;;;;;;;;;;5018930;28;20187;-65
2022/04/16 01:49:20;;;;;;;30.77;24.43;;;;;;;;;;5036296;28;20171;-65
2022/04/16 01:51:46;;;;;;;27.50;23.93;;;;;;;;;;5036350;28;20210;-65
2022/04/16 01:54:12;;;;;;;27.77;23.40;;;;;;;;;;5036431;28;20257;-65
2022/04/16 01:56:38;;;;;;;31.33;23.80;;;;;;;;;;5036728;28;20175;-66
2022/04/16 01:59:04;;;;;;;31.63;23.77;;;;;;;;;;5036963;28;20658;-64
2022/04/16 02:01:30;;;;;;;29.83;22.97;;;;;;;;;;5036915;28;20640;-64
2022/04/16 02:03:56;;;;;;;35.00;23.97;;;;;;;;;;5018927;28;20196;-65
2022/04/16 02:06:22;;;;;;;31.63;24.77;;;;;;;;;;5036545;28;20179;-65
2022/04/16 02:08:48;;;;;;;31.87;25.23;;;;;;;;;;5018391;28;20190;-65
2022/04/16 02:11:14;;;;;;;32.23;25.47;;;;;;;;;;5019106;28;20264;-65
2022/04/16 02:13:40;;;;;;;34.83;25.57;;;;;;;;;;5036149;28;20239;-65
2022/04/16 02:16:06;;;;;;;32.40;26.20;;;;;;;;;;5018367;28;20183;-65
2022/04/16 02:18:32;;;;;;;33.10;25.83;;;;;;;;;;5035570;28;20249;-65
2022/04/16 02:20:58;;;;;;;31.53;24.67;;;;;;;;;;5036479;28;20222;-64
2022/04/16 02:23:25;;;;;;;31.07;25.20;;;;;;;;;;5036115;28;20257;-64
2022/04/16 02:25:53;;;;;;;34.53;26.60;;;;;;;;;;5035907;28;20245;-65
2022/04/16 02:28:21;;;;;;;35.23;26.93;;;;;;;;;;5036453;28;20183;-65
2022/04/16 02:30:47;;;;;;;33.50;24.87;;;;;;;;;;5035912;28;20207;-65
2022/04/16 02:33:13;;;;;;;35.17;26.67;;;;;;;;;;5035764;28;20605;-65
2022/04/16 02:35:39;;;;;;;32.63;24.90;;;;;;;;;;5018198;28;20183;-65
2022/04/16 02:38:05;;;;;;;35.30;26.90;;;;;;;;;;5017738;28;20179;-64
2022/04/16 02:40:31;;;;;;;34.17;27.17;;;;;;;;;;5017335;28;20183;-65
2022/04/16 02:42:57;;;;;;;32.80;25.80;;;;;;;;;;5017557;28;20232;-65
2022/04/16 02:48:08;;;;;;;34.93;28.03;;;;;;;;;;5035404;28;20262;-65
2022/04/16 02:50:34;;;;;;;38.17;27.87;;;;;;;;;;5034966;28;20179;-65
2022/04/16 02:53:00;;;;;;;36.23;27.80;;;;;;;;;;5034659;28;20219;-65
2022/04/16 02:55:27;;;;;;;33.23;28.00;;;;;;;;;;5017201;28;20179;-65
2022/04/16 02:57:53;;;;;;;33.50;27.07;;;;;;;;;;5035035;28;20261;-65
2022/04/16 03:00:20;;;;;;;38.73;29.57;;;;;;;;;;5034978;28;20270;-66
2022/04/16 03:02:47;;;;;;;39.47;29.23;;;;;;;;;;5034488;28;20191;-65
2022/04/16 03:05:13;;;;;;;38.00;30.57;;;;;;;;;;5016767;28;20217;-65
2022/04/16 03:07:39;;;;;;;40.27;29.33;;;;;;;;;;5016891;28;20191;-65
2022/04/16 03:10:06;;;;;;;37.70;29.13;;;;;;;;;;5034866;28;20182;-65
2022/04/16 03:13:01;;;;;;;42.97;28.90;;;;;;;;;;5034868;28;20257;-65
2022/04/16 03:18:12;;;;;;;38.27;28.77;;;;;;;;;;5034424;28;20661;-65
2022/04/16 03:20:38;;;;;;;39.13;29.40;;;;;;;;;;5034379;28;20167;-65
2022/04/16 03:23:04;;;;;;;36.47;29.23;;;;;;;;;;5016673;28;20249;-65
2022/04/16 03:25:31;;;;;;;38.23;28.23;;;;;;;;;;5034219;28;20560;-65
2022/04/16 03:27:57;;;;;;;39.27;29.43;;;;;;;;;;5034288;28;20185;-65
2022/04/16 03:30:24;;;;;;;39.90;28.83;;;;;;;;;;5015706;28;20208;-66
2022/04/16 03:32:50;;;;;;;36.90;28.93;;;;;;;;;;5034156;28;20242;-65
2022/04/16 03:35:18;;;;;;;39.00;29.23;;;;;;;;;;5034430;28;20183;-66
2022/04/16 03:37:44;;;;;;;41.17;30.77;;;;;;;;;;5034151;28;20224;-65
2022/04/16 03:40:10;;;;;;;42.83;31.03;;;;;;;;;;5016433;28;20207;-65
2022/04/16 03:42:44;;;;;;;43.20;32.60;;;;;;;;;;5016742;28;20199;-65
2022/04/16 03:45:10;;;;;;;45.77;30.90;;;;;;;;;;5016422;28;20167;-65
2022/04/16 03:47:36;;;;;;;44.23;32.67;;;;;;;;;;5033895;28;20195;-65
2022/04/16 03:50:02;;;;;;;49.27;34.63;;;;;;;;;;5016158;28;20587;-65
2022/04/16 03:52:28;;;;;;;42.47;32.97;;;;;;;;;;5016126;28;20211;-65
2022/04/16 04:00:23;;;;;;;50.80;34.50;;;;;;;;;;5034163;28;20182;-63
2022/04/16 04:02:49;;;;;;;47.97;33.83;;;;;;;;;;5034151;28;20597;-65
2022/04/16 04:05:15;;;;;;;48.27;35.40;;;;;;;;;;5033672;28;20179;-65
2022/04/16 04:07:40;;;;;;;48.30;34.90;;;;;;;;;;5034046;28;20304;-66
2022/04/16 04:10:07;;;;;;;48.20;35.50;;;;;;;;;;5016086;28;20181;-65
2022/04/16 04:12:33;;;;;;;55.00;37.60;;;;;;;;;;5033773;28;20210;-65
2022/04/16 04:14:59;;;;;;;54.07;37.13;;;;;;;;;;5033768;28;20258;-65
2022/04/16 04:17:25;;;;;;;58.13;36.33;;;;;;;;;;5016083;28;20266;-65
2022/04/16 04:19:51;;;;;;;48.70;36.30;;;;;;;;;;5034366;28;20610;-65
2022/04/16 04:22:17;;;;;;;51.03;35.63;;;;;;;;;;5033700;28;20664;-65
2022/04/16 04:24:45;;;;;;;56.43;37.20;;;;;;;;;;5015898;28;20278;-65
2022/04/16 04:27:11;;;;;;;56.40;38.17;;;;;;;;;;5015905;28;20628;-65
2022/04/16 04:29:37;;;;;;;52.93;36.87;;;;;;;;;;5033835;28;20179;-65
2022/04/16 04:32:04;;;;;;;54.80;37.40;;;;;;;;;;5033850;28;20199;-65
2022/04/16 04:34:30;;;;;;;55.00;38.23;;;;;;;;;;5015917;28;20238;-65
2022/04/16 04:36:56;;;;;;;55.93;38.60;;;;;;;;;;5034048;28;20171;-65
2022/04/16 04:39:22;;;;;;;62.83;40.73;;;;;;;;;;5042100;28;20262;-66
2022/04/16 04:41:48;;;;;;;58.03;39.73;;;;;;;;;;5042565;28;20199;-67
2022/04/16 04:44:14;;;;;;;59.90;40.40;;;;;;;;;;5028863;28;20189;-66
2022/04/16 04:46:41;;;;;;;57.37;40.77;;;;;;;;;;5029970;28;20202;-66
2022/04/16 04:49:11;;;;;;;66.63;41.87;;;;;;;;;;5023625;28;20179;-65
2022/04/16 04:51:41;;;;;;;66.87;42.43;;;;;;;;;;5037447;28;20191;-66
2022/04/16 04:54:08;;;;;;;59.43;40.73;;;;;;;;;;5039029;28;20183;-65
2022/04/16 04:56:34;;;;;;;54.97;37.90;;;;;;;;;;5037378;28;20182;-67
2022/04/16 04:59:00;;;;;;;62.63;40.90;;;;;;;;;;5037916;28;20179;-62
2022/04/16 05:01:26;;;;;;;63.43;40.13;;;;;;;;;;5037465;28;20175;-63
2022/04/16 05:03:52;;;;;;;63.80;43.20;;;;;;;;;;5019580;28;20191;-63
2022/04/16 05:06:18;;;;;;;59.13;42.47;;;;;;;;;;5037116;28;20186;-63
2022/04/16 05:08:44;;;;;;;58.77;40.63;;;;;;;;;;5037159;28;20179;-65
2022/04/16 05:11:11;;;;;;;61.77;43.07;;;;;;;;;;5019298;28;20621;-65
2022/04/16 05:13:37;;;;;;;64.13;44.27;;;;;;;;;;5019168;28;20301;-65
2022/04/16 05:16:03;;;;;;;61.93;43.27;;;;;;;;;;5019600;28;20217;-65
2022/04/16 05:18:28;;;;;;;60.17;43.73;;;;;;;;;;5019164;28;20179;-65
2022/04/16 05:20:54;;;;;;;64.23;42.77;;;;;;;;;;5036737;28;20179;-65
2022/04/16 05:23:20;;;;;;;61.33;39.97;;;;;;;;;;5018990;28;20261;-65
2022/04/16 05:25:46;;;;;;;61.67;41.00;;;;;;;;;;5036928;28;20312;-65
2022/04/16 05:28:12;;;;;;;65.43;44.07;;;;;;;;;;5018844;28;20206;-65
2022/04/16 05:30:44;;;;;;;57.07;39.67;;;;;;;;;;5036879;28;20610;-65
2022/04/16 05:34:18;;;;;;;61.27;41.20;;;;;;;;;;5018837;28;20203;-65
2022/04/16 05:36:03;;;;;;;57.43;41.03;;;;;;;;;;5036184;28;20624;-65
2022/04/16 05:38:29;;;;;;;62.30;42.10;;;;;;;;;;5018634;28;20276;-63
2022/04/16 05:40:55;;;;;;;57.50;39.67;;;;;;;;;;5018582;28;20268;-65
2022/04/16 05:43:21;;;;;;;52.30;38.87;;;;;;;;;;5018400;28;20207;-65
2022/04/16 05:45:47;;;;;;;52.93;38.87;;;;;;;;;;5036180;28;20214;-65
2022/04/16 05:48:13;;;;;;;47.57;35.43;;;;;;;;;;5036364;28;20178;-65
2022/04/16 05:50:39;;;;;;;46.43;34.40;;;;;;;;;;5018708;28;20290;-66
2022/04/16 05:53:10;;;;;;;41.73;29.97;;;;;;;;;;5034770;28;20746;-65
2022/04/16 05:55:37;;;;;;;37.87;28.63;;;;;;;;;;5035945;28;20181;-65
2022/04/16 05:58:03;;;;;;;39.60;30.93;;;;;;;;;;5035993;28;20171;-63
2022/04/16 06:00:29;;;;;;;40.10;30.67;;;;;;;;;;5036006;28;20167;-66
2022/04/16 06:02:55;;;;;;;34.90;27.13;;;;;;;;;;5035867;28;20195;-65
2022/04/16 06:05:22;;;;;;;35.60;26.83;;;;;;;;;;5035975;28;20188;-66
2022/04/16 06:07:48;;;;;;;34.80;26.50;;;;;;;;;;5035831;28;20258;-65
2022/04/16 06:10:14;;;;;;;36.23;28.73;;;;;;;;;;5036152;28;20273;-63
2022/04/16 06:12:43;;;;;;;37.07;27.17;;;;;;;;;;5036051;28;20265;-63
2022/04/16 06:15:09;;;;;;;35.40;26.80;;;;;;;;;;5018190;28;20190;-63
2022/04/16 06:17:35;;;;;;;38.03;26.60;;;;;;;;;;5018302;28;20183;-63
2022/04/16 06:20:03;;;;;;;34.73;26.27;;;;;;;;;;5036470;28;20207;-66
2022/04/16 06:22:29;;;;;;;33.30;25.27;;;;;;;;;;5053561;22;20278;-64
2022/04/16 06:24:55;;;;;;;28.47;23.57;;;;;;;;;;5039566;28;20171;-64
2022/04/16 06:27:22;;;;;;;29.37;23.47;;;;;;;;;;5042137;28;20207;-64
2022/04/16 06:29:48;;;;;;;33.43;25.57;;;;;;;;;;5036711;28;20553;-64
2022/04/16 06:32:14;;;;;;;34.47;24.80;;;;;;;;;;5039451;28;20203;-64
2022/04/16 06:34:40;;;;;;;29.33;22.13;;;;;;;;;;5043024;28;20237;-65
2022/04/16 06:37:06;;;;;;;33.63;24.70;;;;;;;;;;5044440;28;20245;-61
2022/04/16 06:39:32;;;;;;;32.77;23.23;;;;;;;;;;5043412;28;20206;-64
2022/04/16 06:41:58;;;;;;;31.20;22.20;;;;;;;;;;5042949;28;20199;-64
2022/04/16 06:44:24;;;;;;;31.90;23.47;;;;;;;;;;5036045;28;20191;-65
2022/04/16 06:46:51;;;;;;;29.50;23.37;;;;;;;;;;5036527;28;20179;-62
2022/04/16 06:49:18;;;;;;;28.57;23.67;;;;;;;;;;5035451;28;20313;-64
2022/04/16 06:51:44;;;;;;;29.43;23.57;;;;;;;;;;5036316;28;20218;-63
2022/04/16 06:54:10;;;;;;;32.50;24.73;;;;;;;;;;5034699;28;20206;-64
2022/04/16 06:56:36;;;;;;;33.07;23.27;;;;;;;;;;5034520;28;20266;-64
2022/04/16 06:59:02;;;;;;;33.30;25.30;;;;;;;;;;5034961;28;20179;-65
2022/04/16 07:01:28;;;;;;;31.87;23.57;;;;;;;;;;5034476;28;20222;-64
2022/04/16 07:03:54;;;;;;;29.57;23.40;;;;;;;;;;5034814;28;20217;-64
2022/04/16 07:06:20;;;;;;;28.83;21.67;;;;;;;;;;5035582;28;20210;-64
2022/04/16 07:08:46;;;;;;;25.83;21.80;;;;;;;;;;5034814;28;20190;-63
2022/04/16 07:11:12;;;;;;;24.10;19.53;;;;;;;;;;5034358;28;20777;-65
2022/04/16 07:13:38;;;;;;;26.43;19.97;;;;;;;;;;5036251;28;20302;-65
2022/04/16 07:16:04;;;;;;;21.57;16.80;;;;;;;;;;5034847;28;20175;-65
2022/04/16 07:18:30;;;;;;;26.43;19.90;;;;;;;;;;5034748;28;20186;-65
2022/04/16 07:20:56;;;;;;;26.13;20.80;;;;;;;;;;5035612;28;20171;-65
2022/04/16 07:23:22;;;;;;;23.70;20.17;;;;;;;;;;5035724;28;20218;-65
2022/04/16 07:25:47;;;;;;;25.40;19.90;;;;;;;;;;5034298;28;20222;-64
2022/04/16 07:28:21;;;;;;;26.97;20.50;;;;;;;;;;5035733;28;20175;-64
2022/04/16 07:30:47;;;;;;;22.33;19.30;;;;;;;;;;5036069;28;20192;-64
2022/04/16 07:33:13;;;;;;;24.50;18.73;;;;;;;;;;5035457;28;20266;-66
2022/04/16 07:35:39;;;;;;;25.27;18.93;;;;;;;;;;5034483;28;20218;-65
2022/04/16 07:38:06;;;;;;;24.73;18.90;;;;;;;;;;5035559;28;20175;-65
2022/04/16 07:40:33;;;;;;;21.10;18.33;;;;;;;;;;5034187;28;20213;-65
2022/04/16 07:43:00;;;;;;;21.87;17.20;;;;;;;;;;5035528;28;20242;-62
2022/04/16 07:45:26;;;;;;;21.57;18.17;;;;;;;;;;5034844;28;20175;-64
2022/04/16 07:47:52;;;;;;;22.87;17.57;;;;;;;;;;5033710;28;20226;-63
2022/04/16 07:50:18;;;;;;;20.50;18.17;;;;;;;;;;5035024;28;20183;-64
2022/04/16 07:52:45;;;;;;;21.47;16.30;;;;;;;;;;5035266;28;20242;-64
2022/04/16 07:55:14;;;;;;;21.70;16.40;;;;;;;;;;5033985;28;20643;-65
2022/04/16 07:57:40;;;;;;;21.03;16.70;;;;;;;;;;5034259;28;20186;-64
2022/04/16 08:00:06;;;;;;;23.30;17.43;;;;;;;;;;5033719;28;20175;-64
2022/04/16 08:02:33;;;;;;;23.60;16.77;;;;;;;;;;5033384;28;20195;-65
2022/04/16 08:04:58;;;;;;;21.10;15.60;;;;;;;;;;5037390;28;20213;-63
2022/04/16 08:07:24;;;;;;;20.43;16.07;;;;;;;;;;5046105;28;20176;-64
2022/04/16 08:09:50;;;;;;;18.77;16.13;;;;;;;;;;5045460;28;20228;-66
2022/04/16 08:12:17;;;;;;;18.67;15.90;;;;;;;;;;5043635;28;20218;-66
2022/04/16 08:14:43;;;;;;;18.20;15.90;;;;;;;;;;5045049;28;20218;-65
2022/04/16 08:17:09;;;;;;;16.87;13.63;;;;;;;;;;5044667;28;20182;-66
2022/04/16 08:19:35;;;;;;;18.50;12.60;;;;;;;;;;5035516;28;20182;-65
2022/04/16 08:22:03;;;;;;;19.17;13.83;;;;;;;;;;5036152;28;20257;-65
2022/04/16 08:26:58;;;;;;;15.13;13.53;;;;;;;;;;5035503;28;20188;-66
2022/04/16 08:29:24;;;;;;;16.97;14.80;;;;;;;;;;5034885;28;20261;-65
2022/04/16 08:31:50;;;;;;;20.13;14.87;;;;;;;;;;5032915;28;20205;-64
2022/04/16 08:34:16;;;;;;;18.20;13.70;;;;;;;;;;5033038;28;20210;-66
2022/04/16 08:36:42;;;;;;;16.27;12.47;;;;;;;;;;5034951;28;20631;-65
2022/04/16 08:39:08;;;;;;;16.90;13.87;;;;;;;;;;5034325;28;20214;-67
2022/04/16 08:41:34;;;;;;;15.63;13.40;;;;;;;;;;5033093;28;20183;-64
2022/04/16 08:44:00;;;;;;;16.40;13.70;;;;;;;;;;5034360;28;20179;-64
2022/04/16 08:46:28;;;;;;;16.37;13.20;;;;;;;;;;5033977;28;20270;-64
2022/04/16 08:48:54;;;;;;;17.83;14.30;;;;;;;;;;5032805;28;20218;-64
2022/04/16 08:51:20;;;;;;;15.87;12.03;;;;;;;;;;5034135;28;20557;-64
2022/04/16 08:53:47;;;;;;;18.00;13.43;;;;;;;;;;5032534;28;20294;-65
2022/04/16 08:56:13;;;;;;;14.83;12.07;;;;;;;;;;5033095;28;20229;-64
2022/04/16 08:58:39;;;;;;;17.30;12.63;;;;;;;;;;5034774;28;20635;-63
2022/04/16 09:01:05;;;;;;;15.23;11.20;;;;;;;;;;5032740;28;20179;-63
2022/04/16 09:03:38;;;;;;;13.60;11.60;;;;;;;;;;5033133;28;20581;-64
2022/04/16 09:06:04;;;;;;;20.67;12.60;;;;;;;;;;5033460;28;20298;-63
2022/04/16 09:08:31;;;;;;;15.27;11.93;;;;;;;;;;5034735;28;20530;-64
2022/04/16 09:11:06;;;;;;;14.20;10.87;;;;;;;;;;5034782;28;20235;-64
2022/04/16 09:13:33;;;;;;;13.13;10.40;;;;;;;;;;5037163;28;20297;-61
2022/04/16 09:16:05;;;;;;;13.87;10.63;;;;;;;;;;5040130;28;20561;-65
2022/04/16 09:18:32;;;;;;;15.67;11.73;;;;;;;;;;5040181;28;20175;-64
2022/04/16 09:20:58;;;;;;;15.50;10.47;;;;;;;;;;5039584;28;20183;-65
2022/04/16 09:23:25;;;;;;;9.53;8.47;;;;;;;;;;5035845;28;20222;-65
2022/04/16 09:25:52;;;;;;;9.63;8.20;;;;;;;;;;5036978;28;20179;-64
2022/04/16 09:28:19;;;;;;;11.47;9.43;;;;;;;;;;5033684;28;20179;-62
2022/04/16 09:30:49;;;;;;;8.57;7.33;;;;;;;;;;5036457;28;20201;-66
2022/04/16 09:33:15;;;;;;;6.13;5.47;;;;;;;;;;5037953;28;20671;-63
2022/04/16 09:35:41;;;;;;;8.60;7.30;;;;;;;;;;5038020;28;20180;-64
2022/04/16 09:38:08;;;;;;;8.50;7.20;;;;;;;;;;5036379;28;20705;-65
2022/04/16 09:40:35;;;;;;;6.53;5.90;;;;;;;;;;5036425;28;20207;-64
2022/04/16 09:43:02;;;;;;;6.70;6.07;;;;;;;;;;5036166;28;20276;-66
2022/04/16 09:45:29;;;;;;;9.23;7.60;;;;;;;;;;5037663;28;20269;-64
2022/04/16 09:47:55;;;;;;;7.30;6.53;;;;;;;;;;5035840;28;20183;-64
2022/04/16 09:50:22;;;;;;;6.37;5.70;;;;;;;;;;5035642;28;20191;-66
2022/04/16 09:52:55;;;;;;;5.10;4.60;;;;;;;;;;5036971;28;20786;-64
2022/04/16 09:55:22;;;;;;;6.33;4.97;;;;;;;;;;5037427;28;20634;-64
2022/04/16 09:57:57;;;;;;;5.20;4.40;;;;;;;;;;5037221;28;20670;-64
2022/04/16 10:00:23;;;;;;;7.03;6.33;;;;;;;;;;5037365;28;20205;-64
2022/04/16 10:02:49;;;;;;;7.63;6.83;;;;;;;;;;5037273;28;20199;-65
2022/04/16 10:05:16;;;;;;;8.60;6.80;;;;;;;;;;5035732;28;20179;-63
2022/04/16 10:07:43;;;;;;;8.33;7.27;;;;;;;;;;5037447;28;20175;-64
2022/04/16 10:10:17;;;;;;;8.70;7.87;;;;;;;;;;5036945;28;20658;-63
2022/04/16 10:13:01;;;;;;;9.43;7.13;;;;;;;;;;5035134;28;20245;-64
2022/04/16 10:15:37;;;;;;;8.70;6.73;;;;;;;;;;5036805;28;20602;-63
2022/04/16 10:18:03;;;;;;;9.10;7.27;;;;;;;;;;5036822;28;20205;-65
2022/04/16 10:20:29;;;;;;;9.07;8.17;;;;;;;;;;5037107;28;20179;-66
2022/04/16 10:22:56;;;;;;;9.13;8.00;;;;;;;;;;5036303;28;20218;-65
2022/04/16 10:25:32;;;;;;;9.27;8.37;;;;;;;;;;5036136;28;20546;-65
2022/04/16 10:28:08;;;;;;;8.40;7.50;;;;;;;;;;5036717;28;20186;-63
2022/04/16 10:30:39;;;;;;;9.37;8.20;;;;;;;;;;5036623;28;20182;-64
2022/04/16 10:33:16;;;;;;;9.23;8.27;;;;;;;;;;5035135;28;20573;-65
2022/04/16 10:35:58;;;;;;;9.43;8.37;;;;;;;;;;5036075;28;20167;-65
2022/04/16 10:38:25;;;;;;;10.00;8.90;;;;;;;;;;5036269;28;20702;-64
2022/04/16 10:40:55;;;;;;;9.07;7.73;;;;;;;;;;5034030;28;20214;-64
2022/04/16 10:43:25;;;;;;;10.17;8.07;;;;;;;;;;5035632;28;20239;-65
2022/04/16 10:46:01;;;;;;;8.60;7.77;;;;;;;;;;5035552;28;20178;-66
2022/04/16 10:48:29;;;;;;;11.93;8.23;;;;;;;;;;5036430;28;20186;-65
2022/04/16 10:50:57;;;;;;;10.10;8.07;;;;;;;;;;5036327;28;20193;-65
2022/04/16 10:53:28;;;;;;;9.63;8.63;;;;;;;;;;5035827;28;20252;-65
2022/04/16 10:55:54;;;;;;;11.03;8.20;;;;;;;;;;5036960;28;20210;-65
2022/04/16 10:58:27;;;;;;;9.43;7.80;;;;;;;;;;5034295;28;20174;-65
2022/04/16 11:01:04;;;;;;;8.80;7.90;;;;;;;;;;5035872;28;20270;-65
2022/04/16 11:03:30;;;;;;;8.57;7.67;;;;;;;;;;5035461;28;20572;-65
2022/04/16 11:06:07;;;;;;;9.40;7.93;;;;;;;;;;5034118;28;20187;-65
2022/04/16 11:08:38;;;;;;;8.73;7.83;;;;;;;;;;5035495;28;20584;-65
2022/04/16 11:11:04;;;;;;;9.23;8.23;;;;;;;;;;5035802;28;20250;-66
2022/04/16 11:13:30;;;;;;;10.20;9.10;;;;;;;;;;5034060;28;20298;-66
2022/04/16 11:15:58;;;;;;;8.93;8.13;;;;;;;;;;5035245;28;20666;-66
2022/04/16 11:18:24;;;;;;;10.40;7.50;;;;;;;;;;5035404;28;20171;-65
2022/04/16 11:20:55;;;;;;;8.63;7.00;;;;;;;;;;5034319;28;20233;-66
2022/04/16 11:23:25;;;;;;;9.03;7.17;;;;;;;;;;5035608;28;20218;-65
2022/04/16 11:34:14;;;;;;;8.37;7.47;;;;;;;;;;5035966;28;20237;-65
2022/04/16 11:36:40;;;;;;;7.53;6.47;;;;;;;;;;5035804;28;20171;-65
2022/04/16 11:39:06;;;;;;;7.97;6.13;;;;;;;;;;5033467;28;20175;-65
2022/04/16 11:41:33;;;;;;;8.50;6.63;;;;;;;;;;5033299;28;20558;-65
2022/04/16 11:43:59;;;;;;;8.17;6.80;;;;;;;;;;5035054;28;20547;-65
2022/04/16 11:46:27;;;;;;;8.10;6.83;;;;;;;;;;5033670;28;20179;-65
2022/04/16 11:48:53;;;;;;;7.47;6.63;;;;;;;;;;5034560;28;20175;-65
2022/04/16 11:51:20;;;;;;;7.00;6.30;;;;;;;;;;5033582;28;20323;-65
2022/04/16 11:53:47;;;;;;;8.77;4.97;;;;;;;;;;5034443;28;20245;-65
2022/04/16 11:56:13;;;;;;;7.50;6.20;;;;;;;;;;5035687;28;20258;-65
2022/04/16 11:58:39;;;;;;;6.60;5.33;;;;;;;;;;5034428;28;20668;-65
2022/04/16 12:01:06;;;;;;;5.70;5.07;;;;;;;;;;5034678;28;20214;-65
2022/04/16 12:03:36;;;;;;;5.50;4.80;;;;;;;;;;5034796;28;20198;-65
2022/04/16 12:06:02;;;;;;;6.80;4.90;;;;;;;;;;5035111;28;20202;-65
2022/04/16 12:08:31;;;;;;;6.27;5.30;;;;;;;;;;5034370;28;20659;-65
2022/04/16 12:10:59;;;;;;;8.03;5.90;;;;;;;;;;5037522;28;20183;-65
2022/04/16 12:13:34;;;;;;;5.97;4.83;;;;;;;;;;5048314;28;20199;-65
2022/04/16 12:16:03;;;;;;;6.60;5.40;;;;;;;;;;5050351;28;20174;-65
2022/04/16 12:18:34;;;;;;;5.20;4.70;;;;;;;;;;5050278;28;20175;-66
2022/04/16 12:21:05;;;;;;;6.63;5.10;;;;;;;;;;5041607;28;20250;-64
2022/04/16 12:23:31;;;;;;;6.67;5.60;;;;;;;;;;5034157;28;20210;-66
2022/04/16 12:26:05;;;;;;;6.47;5.13;;;;;;;;;;5034332;28;20237;-65
2022/04/16 12:28:51;;;;;;;7.87;5.13;;;;;;;;;;5034446;28;20175;-66
2022/04/16 12:31:30;;;;;;;6.53;4.77;;;;;;;;;;5035011;28;20167;-66
2022/04/16 12:33:56;;;;;;;5.73;5.13;;;;;;;;;;5034076;28;20249;-65
2022/04/16 12:36:22;;;;;;;7.30;4.87;;;;;;;;;;5034150;28;20178;-65
2022/04/16 12:38:48;;;;;;;7.27;4.80;;;;;;;;;;5033440;28;20182;-64
2022/04/16 12:41:15;;;;;;;5.10;4.60;;;;;;;;;;5034260;28;20549;-65
2022/04/16 12:43:41;;;;;;;7.37;5.10;;;;;;;;;;5032901;28;20214;-65
2022/04/16 12:46:07;;;;;;;6.37;4.93;;;;;;;;;;5032942;28;20187;-64
2022/04/16 12:48:33;;;;;;;6.27;4.83;;;;;;;;;;5035897;28;20187;-65
2022/04/16 12:51:00;;;;;;;6.87;5.30;;;;;;;;;;5034711;28;20229;-65
2022/04/16 12:53:26;;;;;;;6.03;5.00;;;;;;;;;;5032292;28;20207;-64
2022/04/16 12:55:52;;;;;;;5.80;5.30;;;;;;;;;;5033959;28;20175;-64
2022/04/16 12:58:18;;;;;;;5.83;5.03;;;;;;;;;;5033758;28;20186;-64
2022/04/16 13:00:47;;;;;;;6.17;5.57;;;;;;;;;;5033714;28;20258;-65
2022/04/16 13:03:14;;;;;;;5.70;4.70;;;;;;;;;;5034500;28;20206;-64
2022/04/16 13:05:40;;;;;;;5.87;4.17;;;;;;;;;;5036426;28;20213;-66
2022/04/16 13:08:06;;;;;;;5.07;4.30;;;;;;;;;;5037780;28;20183;-65
2022/04/16 13:10:32;;;;;;;5.70;4.83;;;;;;;;;;5038043;28;20270;-65
2022/04/16 13:12:59;;;;;;;5.17;4.17;;;;;;;;;;5038115;28;20238;-65
2022/04/16 13:15:25;;;;;;;4.70;4.20;;;;;;;;;;5037682;28;20183;-64
2022/04/16 13:17:51;;;;;;;11.00;4.53;;;;;;;;;;5061873;22;20647;-63
2022/04/16 13:20:17;;;;;;;6.23;4.50;;;;;;;;;;5018681;28;20244;-64
2022/04/16 13:22:43;;;;;;;5.73;4.43;;;;;;;;;;5036373;28;20182;-64
2022/04/16 13:25:09;;;;;;;4.30;3.60;;;;;;;;;;5036696;28;20543;-63
2022/04/16 13:27:36;;;;;;;6.77;4.43;;;;;;;;;;5036655;28;20183;-63
2022/04/16 13:30:02;;;;;;;4.73;4.10;;;;;;;;;;5036677;28;20252;-63
2022/04/16 13:32:28;;;;;;;4.13;3.73;;;;;;;;;;5036276;28;20601;-64
2022/04/16 13:34:54;;;;;;;5.53;3.97;;;;;;;;;;5036272;28;20207;-63
2022/04/16 13:37:20;;;;;;;3.97;3.57;;;;;;;;;;5036119;28;20631;-63
2022/04/16 13:42:30;;;;;;;4.10;3.70;;;;;;;;;;5035947;28;20206;-63
2022/04/16 13:44:57;;;;;;;4.27;3.33;;;;;;;;;;5035847;28;20183;-63
2022/04/16 13:47:24;;;;;;;4.20;3.50;;;;;;;;;;5035776;28;20186;-63
2022/04/16 13:49:50;;;;;;;4.20;3.60;;;;;;;;;;5035579;28;20202;-63
2022/04/16 13:52:16;;;;;;;3.80;3.20;;;;;;;;;;5035828;28;20179;-63
2022/04/16 13:54:42;;;;;;;3.30;3.00;;;;;;;;;;5036047;28;20287;-64
2022/04/16 13:57:11;;;;;;;4.43;3.20;;;;;;;;;;5036046;28;20178;-64
2022/04/16 13:59:37;;;;;;;4.10;3.27;;;;;;;;;;5035604;28;20667;-65
2022/04/16 14:02:04;;;;;;;4.10;3.33;;;;;;;;;;5035760;28;20704;-63
2022/04/16 14:05:42;;;;;;;3.80;3.33;;;;;;;;;;5035947;28;20589;-63
2022/04/16 14:07:16;;;;;;;5.77;3.60;;;;;;;;;;5035442;28;20194;-63
2022/04/16 14:09:42;;;;;;;3.73;3.30;;;;;;;;;;5017970;28;20211;-63
2022/04/16 14:12:08;;;;;;;4.10;3.37;;;;;;;;;;5017819;28;20219;-64
2022/04/16 14:14:34;;;;;;;3.50;3.20;;;;;;;;;;5035052;28;20210;-64
2022/04/16 14:17:00;;;;;;;3.43;3.10;;;;;;;;;;5035607;28;20550;-63
2022/04/16 14:19:26;;;;;;;4.30;2.93;;;;;;;;;;5017807;28;20214;-63
2022/04/16 14:21:54;;;;;;;3.13;2.87;;;;;;;;;;5017587;28;20693;-63
2022/04/16 14:24:21;;;;;;;5.70;3.57;;;;;;;;;;5035606;28;20183;-62
2022/04/16 14:26:47;;;;;;;3.57;3.23;;;;;;;;;;5017478;28;20179;-64
2022/04/16 14:29:14;;;;;;;3.93;3.50;;;;;;;;;;5035541;28;20212;-63
2022/04/16 14:31:40;;;;;;;4.77;3.00;;;;;;;;;;5035207;28;20225;-63
2022/04/16 14:34:07;;;;;;;3.20;2.90;;;;;;;;;;5017459;28;20211;-63
2022/04/16 14:36:33;;;;;;;3.00;2.70;;;;;;;;;;5035329;28;20198;-63
2022/04/16 14:38:59;;;;;;;3.07;2.67;;;;;;;;;;5035096;28;20714;-64
2022/04/16 14:41:25;;;;;;;7.63;2.73;;;;;;;;;;5035243;28;20183;-63
2022/04/16 14:43:56;;;;;;;4.30;3.50;;;;;;;;;;5034954;28;20190;-65
2022/04/16 14:46:23;;;;;;;5.30;3.00;;;;;;;;;;5035675;28;20159;-63
2022/04/16 14:48:53;;;;;;;5.93;2.90;;;;;;;;;;5035169;28;20195;-62
2022/04/16 14:51:19;;;;;;;2.53;2.33;;;;;;;;;;5035130;28;20314;-64